sensor_id;sensor_type;location;lat;lon;timestamp;temperature;humidity
25668;DHT22;18003;-33.830;151.202;2023-04-08T00:01:44;19.40;99.90
25668;DHT22;18003;-33.830;151.202;2023-04-08T00:04:14;19.40;99.90
25668;DHT22;18003;-33.830;151.202;2023-04-08T00:06:45;19.50;99.90
25668;DHT22;18003;-33.830;151.202;2023-04-08T00:09:15;19.50;99.90
25668;DHT22;18003;-33.830;151.202;2023-04-08T00:11:45;19.50;99.90
25668;DHT22;18003;-33.830;151.202;2023-04-08T00:14:15;19.50;99.90
25668;DHT22;18003;-33.830;151.202;2023-04-08T00:16:45;19.50;99.90
25668;DHT22;18003;-33.830;151.202;2023-04-08T00:19:16;19.50;99.90
25668;DHT22;18003;-33.830;151.202;2023-04-08T00:21:46;19.50;99.90
25668;DHT22;18003;-33.830;151.202;2023-04-08T00:24:16;19.60;99.90
25668;DHT22;18003;-33.830;151.202;2023-04-08T00:26:46;19.60;99.90
25668;DHT22;18003;-33.830;151.202;2023-04-08T00:29:16;19.60;99.90
25668;DHT22;18003;-33.830;151.202;2023-04-08T00:31:46;19.60;99.90
25668;DHT22;18003;-33.830;151.202;2023-04-08T00:34:17;19.60;99.90
25668;DHT22;18003;-33.830;151.202;2023-04-08T00:36:47;19.60;99.90
25668;DHT22;18003;-33.830;151.202;2023-04-08T00:39:16;19.60;99.90
25668;DHT22;18003;-33.830;151.202;2023-04-08T00:41:47;19.60;99.90
25668;DHT22;18003;-33.830;151.202;2023-04-08T00:44:16;19.60;99.90
25668;DHT22;18003;-33.830;151.202;2023-04-08T00:46:46;19.60;99.90
25668;DHT22;18003;-33.830;151.202;2023-04-08T00:49:17;19.70;99.90
25668;DHT22;18003;-33.830;151.202;2023-04-08T00:51:47;19.60;99.90
25668;DHT22;18003;-33.830;151.202;2023-04-08T00:54:17;19.70;99.90
25668;DHT22;18003;-33.830;151.202;2023-04-08T00:56:47;19.70;99.90
25668;DHT22;18003;-33.830;151.202;2023-04-08T00:59:18;19.70;99.90
25668;DHT22;18003;-33.830;151.202;2023-04-08T01:06:59;19.70;99.90
25668;DHT22;18003;-33.830;151.202;2023-04-08T01:09:29;19.70;99.90
25668;DHT22;18003;-33.830;151.202;2023-04-08T01:12:02;19.80;99.90
25668;DHT22;18003;-33.830;151.202;2023-04-08T01:14:33;19.70;99.90
25668;DHT22;18003;-33.830;151.202;2023-04-08T01:17:04;19.70;99.90
25668;DHT22;18003;-33.830;151.202;2023-04-08T01:19:38;19.80;99.90
25668;DHT22;18003;-33.830;151.202;2023-04-08T01:22:22;19.80;99.90
25668;DHT22;18003;-33.830;151.202;2023-04-08T01:24:51;19.80;99.90
25668;DHT22;18003;-33.830;151.202;2023-04-08T01:27:22;19.80;99.90
25668;DHT22;18003;-33.830;151.202;2023-04-08T01:29:52;19.80;99.90
25668;DHT22;18003;-33.830;151.202;2023-04-08T01:32:23;19.90;99.90
25668;DHT22;18003;-33.830;151.202;2023-04-08T01:34:54;19.80;99.90
25668;DHT22;18003;-33.830;151.202;2023-04-08T01:37:25;19.90;99.90
25668;DHT22;18003;-33.830;151.202;2023-04-08T01:39:56;19.80;99.90
25668;DHT22;18003;-33.830;151.202;2023-04-08T01:42:28;19.80;99.90
25668;DHT22;18003;-33.830;151.202;2023-04-08T01:44:59;19.80;99.90
25668;DHT22;18003;-33.830;151.202;2023-04-08T01:47:30;19.90;99.90
25668;DHT22;18003;-33.830;151.202;2023-04-08T01:50:01;19.90;99.90
25668;DHT22;18003;-33.830;151.202;2023-04-08T01:52:32;20.00;99.90
25668;DHT22;18003;-33.830;151.202;2023-04-08T01:55:03;20.10;99.90
25668;DHT22;18003;-33.830;151.202;2023-04-08T01:57:34;20.10;99.90
25668;DHT22;18003;-33.830;151.202;2023-04-08T02:00:10;20.10;99.90
25668;DHT22;18003;-33.830;151.202;2023-04-08T02:02:41;20.10;99.90
25668;DHT22;18003;-33.830;151.202;2023-04-08T02:05:11;20.20;99.90
25668;DHT22;18003;-33.830;151.202;2023-04-08T02:07:42;20.20;99.90
25668;DHT22;18003;-33.830;151.202;2023-04-08T02:10:14;20.20;99.90
25668;DHT22;18003;-33.830;151.202;2023-04-08T02:12:44;20.20;99.90
25668;DHT22;18003;-33.830;151.202;2023-04-08T02:15:15;20.20;99.90
25668;DHT22;18003;-33.830;151.202;2023-04-08T02:17:51;20.30;99.90
25668;DHT22;18003;-33.830;151.202;2023-04-08T02:20:22;20.20;99.90
25668;DHT22;18003;-33.830;151.202;2023-04-08T02:23:06;20.20;99.90
25668;DHT22;18003;-33.830;151.202;2023-04-08T02:25:37;20.30;99.90
25668;DHT22;18003;-33.830;151.202;2023-04-08T02:28:09;20.30;99.90
25668;DHT22;18003;-33.830;151.202;2023-04-08T02:30:45;20.30;99.90
25668;DHT22;18003;-33.830;151.202;2023-04-08T02:33:14;20.40;99.90
25668;DHT22;18003;-33.830;151.202;2023-04-08T02:35:47;20.40;99.90
25668;DHT22;18003;-33.830;151.202;2023-04-08T02:38:18;20.40;99.90
25668;DHT22;18003;-33.830;151.202;2023-04-08T02:40:49;20.40;99.90
25668;DHT22;18003;-33.830;151.202;2023-04-08T02:43:19;20.40;99.90
25668;DHT22;18003;-33.830;151.202;2023-04-08T02:45:50;20.40;99.90
25668;DHT22;18003;-33.830;151.202;2023-04-08T02:48:20;20.40;99.90
25668;DHT22;18003;-33.830;151.202;2023-04-08T02:50:51;20.40;99.90
25668;DHT22;18003;-33.830;151.202;2023-04-08T02:53:22;20.30;99.90
25668;DHT22;18003;-33.830;151.202;2023-04-08T02:55:52;20.40;99.90
25668;DHT22;18003;-33.830;151.202;2023-04-08T02:58:22;20.40;99.90
25668;DHT22;18003;-33.830;151.202;2023-04-08T03:00:53;20.30;99.90
25668;DHT22;18003;-33.830;151.202;2023-04-08T03:03:23;20.30;99.90
25668;DHT22;18003;-33.830;151.202;2023-04-08T03:05:54;20.30;99.90
25668;DHT22;18003;-33.830;151.202;2023-04-08T03:08:24;20.30;99.90
25668;DHT22;18003;-33.830;151.202;2023-04-08T03:10:55;20.30;99.90
25668;DHT22;18003;-33.830;151.202;2023-04-08T03:13:25;20.30;99.90
25668;DHT22;18003;-33.830;151.202;2023-04-08T03:15:56;20.30;99.90
25668;DHT22;18003;-33.830;151.202;2023-04-08T03:18:26;20.40;99.90
25668;DHT22;18003;-33.830;151.202;2023-04-08T03:20:57;20.40;99.90
25668;DHT22;18003;-33.830;151.202;2023-04-08T03:23:27;20.50;99.90
25668;DHT22;18003;-33.830;151.202;2023-04-08T03:25:57;20.40;99.90
25668;DHT22;18003;-33.830;151.202;2023-04-08T03:28:27;20.40;99.90
25668;DHT22;18003;-33.830;151.202;2023-04-08T03:30:57;20.40;99.90
25668;DHT22;18003;-33.830;151.202;2023-04-08T03:33:28;20.50;99.90
25668;DHT22;18003;-33.830;151.202;2023-04-08T03:35:58;20.50;99.90
25668;DHT22;18003;-33.830;151.202;2023-04-08T03:38:28;20.50;99.90
25668;DHT22;18003;-33.830;151.202;2023-04-08T03:40:58;20.50;99.90
25668;DHT22;18003;-33.830;151.202;2023-04-08T03:43:29;20.50;99.90
25668;DHT22;18003;-33.830;151.202;2023-04-08T03:45:59;20.60;99.90
25668;DHT22;18003;-33.830;151.202;2023-04-08T03:48:29;20.50;99.90
25668;DHT22;18003;-33.830;151.202;2023-04-08T03:50:59;20.50;99.90
25668;DHT22;18003;-33.830;151.202;2023-04-08T03:53:29;20.50;99.90
25668;DHT22;18003;-33.830;151.202;2023-04-08T03:55:59;20.50;99.90
25668;DHT22;18003;-33.830;151.202;2023-04-08T03:58:30;20.50;99.90
25668;DHT22;18003;-33.830;151.202;2023-04-08T04:01:00;20.50;99.90
25668;DHT22;18003;-33.830;151.202;2023-04-08T04:03:30;20.50;99.90
25668;DHT22;18003;-33.830;151.202;2023-04-08T04:06:00;20.50;99.90
25668;DHT22;18003;-33.830;151.202;2023-04-08T04:08:30;20.50;99.90
25668;DHT22;18003;-33.830;151.202;2023-04-08T04:11:00;20.50;99.90
25668;DHT22;18003;-33.830;151.202;2023-04-08T04:13:31;20.50;99.90
25668;DHT22;18003;-33.830;151.202;2023-04-08T04:16:01;20.50;99.90
25668;DHT22;18003;-33.830;151.202;2023-04-08T04:18:32;20.40;99.90
25668;DHT22;18003;-33.830;151.202;2023-04-08T04:21:05;20.40;99.90
25668;DHT22;18003;-33.830;151.202;2023-04-08T04:23:34;20.40;99.90
25668;DHT22;18003;-33.830;151.202;2023-04-08T04:26:08;20.40;99.90
25668;DHT22;18003;-33.830;151.202;2023-04-08T04:28:38;20.40;99.90
25668;DHT22;18003;-33.830;151.202;2023-04-08T04:31:16;20.50;99.90
25668;DHT22;18003;-33.830;151.202;2023-04-08T04:33:39;20.50;99.90
25668;DHT22;18003;-33.830;151.202;2023-04-08T04:36:09;20.40;99.90
25668;DHT22;18003;-33.830;151.202;2023-04-08T04:38:39;20.40;99.90
25668;DHT22;18003;-33.830;151.202;2023-04-08T04:41:10;20.40;99.90
25668;DHT22;18003;-33.830;151.202;2023-04-08T04:43:40;20.40;99.90
25668;DHT22;18003;-33.830;151.202;2023-04-08T04:46:10;20.40;99.90
25668;DHT22;18003;-33.830;151.202;2023-04-08T04:48:40;20.50;99.90
25668;DHT22;18003;-33.830;151.202;2023-04-08T04:51:10;20.40;99.90
25668;DHT22;18003;-33.830;151.202;2023-04-08T04:53:41;20.40;99.90
25668;DHT22;18003;-33.830;151.202;2023-04-08T04:56:11;20.40;99.90
25668;DHT22;18003;-33.830;151.202;2023-04-08T04:58:41;20.40;99.90
25668;DHT22;18003;-33.830;151.202;2023-04-08T05:01:11;20.40;99.90
25668;DHT22;18003;-33.830;151.202;2023-04-08T05:03:41;20.40;99.90
25668;DHT22;18003;-33.830;151.202;2023-04-08T05:06:11;20.40;99.90
25668;DHT22;18003;-33.830;151.202;2023-04-08T05:08:41;20.40;99.90
25668;DHT22;18003;-33.830;151.202;2023-04-08T05:11:11;20.40;99.90
25668;DHT22;18003;-33.830;151.202;2023-04-08T05:13:41;20.40;99.90
25668;DHT22;18003;-33.830;151.202;2023-04-08T05:16:13;20.40;99.90
25668;DHT22;18003;-33.830;151.202;2023-04-08T05:18:43;20.40;99.90
25668;DHT22;18003;-33.830;151.202;2023-04-08T05:21:13;20.40;99.90
25668;DHT22;18003;-33.830;151.202;2023-04-08T05:23:43;20.30;99.90
25668;DHT22;18003;-33.830;151.202;2023-04-08T05:26:13;20.40;99.90
25668;DHT22;18003;-33.830;151.202;2023-04-08T05:28:43;20.40;99.90
25668;DHT22;18003;-33.830;151.202;2023-04-08T05:31:17;20.40;99.90
25668;DHT22;18003;-33.830;151.202;2023-04-08T05:33:47;20.30;99.90
25668;DHT22;18003;-33.830;151.202;2023-04-08T05:36:17;20.40;99.90
25668;DHT22;18003;-33.830;151.202;2023-04-08T05:38:47;20.40;99.90
25668;DHT22;18003;-33.830;151.202;2023-04-08T05:41:17;20.40;99.90
25668;DHT22;18003;-33.830;151.202;2023-04-08T05:43:47;20.40;99.90
25668;DHT22;18003;-33.830;151.202;2023-04-08T05:46:17;20.40;99.90
25668;DHT22;18003;-33.830;151.202;2023-04-08T05:48:47;20.50;99.90
25668;DHT22;18003;-33.830;151.202;2023-04-08T05:51:17;20.40;99.90
25668;DHT22;18003;-33.830;151.202;2023-04-08T05:53:47;20.40;99.90
25668;DHT22;18003;-33.830;151.202;2023-04-08T05:56:17;20.40;99.90
25668;DHT22;18003;-33.830;151.202;2023-04-08T05:58:48;20.50;99.90
25668;DHT22;18003;-33.830;151.202;2023-04-08T06:01:18;20.50;99.90
25668;DHT22;18003;-33.830;151.202;2023-04-08T06:03:48;20.40;99.90
25668;DHT22;18003;-33.830;151.202;2023-04-08T06:06:19;20.40;99.90
25668;DHT22;18003;-33.830;151.202;2023-04-08T06:08:49;20.40;99.90
25668;DHT22;18003;-33.830;151.202;2023-04-08T06:11:19;20.40;99.90
25668;DHT22;18003;-33.830;151.202;2023-04-08T06:13:49;20.40;99.90
25668;DHT22;18003;-33.830;151.202;2023-04-08T06:16:19;20.40;99.90
25668;DHT22;18003;-33.830;151.202;2023-04-08T06:18:50;20.40;99.90
25668;DHT22;18003;-33.830;151.202;2023-04-08T06:21:20;20.40;99.90
25668;DHT22;18003;-33.830;151.202;2023-04-08T06:23:50;20.40;99.90
25668;DHT22;18003;-33.830;151.202;2023-04-08T06:26:20;20.40;99.90
25668;DHT22;18003;-33.830;151.202;2023-04-08T06:28:50;20.30;99.90
25668;DHT22;18003;-33.830;151.202;2023-04-08T06:31:21;20.30;99.90
25668;DHT22;18003;-33.830;151.202;2023-04-08T06:33:51;20.30;99.90
25668;DHT22;18003;-33.830;151.202;2023-04-08T06:36:23;20.30;99.90
25668;DHT22;18003;-33.830;151.202;2023-04-08T06:38:53;20.40;99.90
25668;DHT22;18003;-33.830;151.202;2023-04-08T06:41:23;20.30;99.90
25668;DHT22;18003;-33.830;151.202;2023-04-08T06:43:53;20.30;99.90
25668;DHT22;18003;-33.830;151.202;2023-04-08T06:46:23;20.30;99.90
25668;DHT22;18003;-33.830;151.202;2023-04-08T06:48:53;20.30;99.90
25668;DHT22;18003;-33.830;151.202;2023-04-08T06:51:23;20.30;99.90
25668;DHT22;18003;-33.830;151.202;2023-04-08T06:53:54;20.30;99.90
25668;DHT22;18003;-33.830;151.202;2023-04-08T06:56:25;20.30;99.90
25668;DHT22;18003;-33.830;151.202;2023-04-08T06:58:55;20.30;99.90
25668;DHT22;18003;-33.830;151.202;2023-04-08T07:01:25;20.30;99.90
25668;DHT22;18003;-33.830;151.202;2023-04-08T07:03:55;20.30;99.90
25668;DHT22;18003;-33.830;151.202;2023-04-08T07:06:25;20.30;99.90
25668;DHT22;18003;-33.830;151.202;2023-04-08T07:08:55;20.30;99.90
25668;DHT22;18003;-33.830;151.202;2023-04-08T07:11:25;20.30;99.90
25668;DHT22;18003;-33.830;151.202;2023-04-08T07:13:55;20.30;99.90
25668;DHT22;18003;-33.830;151.202;2023-04-08T07:16:25;20.30;99.90
25668;DHT22;18003;-33.830;151.202;2023-04-08T07:18:55;20.30;99.90
25668;DHT22;18003;-33.830;151.202;2023-04-08T07:21:27;20.30;99.90
25668;DHT22;18003;-33.830;151.202;2023-04-08T07:23:58;20.30;99.90
25668;DHT22;18003;-33.830;151.202;2023-04-08T07:26:28;20.30;99.90
25668;DHT22;18003;-33.830;151.202;2023-04-08T07:28:58;20.30;99.90
25668;DHT22;18003;-33.830;151.202;2023-04-08T07:31:28;20.20;99.90
25668;DHT22;18003;-33.830;151.202;2023-04-08T07:33:58;20.20;99.90
25668;DHT22;18003;-33.830;151.202;2023-04-08T07:36:28;20.20;99.90
25668;DHT22;18003;-33.830;151.202;2023-04-08T07:38:58;20.20;99.90
25668;DHT22;18003;-33.830;151.202;2023-04-08T07:41:28;20.20;99.90
25668;DHT22;18003;-33.830;151.202;2023-04-08T07:43:58;20.20;99.90
25668;DHT22;18003;-33.830;151.202;2023-04-08T07:46:28;20.20;99.90
25668;DHT22;18003;-33.830;151.202;2023-04-08T07:48:58;20.20;99.90
25668;DHT22;18003;-33.830;151.202;2023-04-08T07:51:29;20.20;99.90
25668;DHT22;18003;-33.830;151.202;2023-04-08T07:54:00;20.20;99.90
25668;DHT22;18003;-33.830;151.202;2023-04-08T07:56:30;20.10;99.90
25668;DHT22;18003;-33.830;151.202;2023-04-08T07:59:00;20.20;99.90
25668;DHT22;18003;-33.830;151.202;2023-04-08T08:01:30;20.10;99.90
25668;DHT22;18003;-33.830;151.202;2023-04-08T08:04:01;20.10;99.90
25668;DHT22;18003;-33.830;151.202;2023-04-08T08:06:31;20.10;99.90
25668;DHT22;18003;-33.830;151.202;2023-04-08T08:09:01;20.10;99.90
25668;DHT22;18003;-33.830;151.202;2023-04-08T08:11:32;20.10;99.90
25668;DHT22;18003;-33.830;151.202;2023-04-08T08:14:02;20.10;99.90
25668;DHT22;18003;-33.830;151.202;2023-04-08T08:16:32;20.10;99.90
25668;DHT22;18003;-33.830;151.202;2023-04-08T08:19:03;20.10;99.90
25668;DHT22;18003;-33.830;151.202;2023-04-08T08:21:35;20.10;99.90
25668;DHT22;18003;-33.830;151.202;2023-04-08T08:24:07;20.10;99.90
25668;DHT22;18003;-33.830;151.202;2023-04-08T08:26:37;20.10;99.90
25668;DHT22;18003;-33.830;151.202;2023-04-08T08:29:07;20.10;99.90
25668;DHT22;18003;-33.830;151.202;2023-04-08T08:31:37;20.10;99.90
25668;DHT22;18003;-33.830;151.202;2023-04-08T08:34:07;20.10;99.90
25668;DHT22;18003;-33.830;151.202;2023-04-08T08:36:37;20.10;99.90
25668;DHT22;18003;-33.830;151.202;2023-04-08T08:39:08;20.10;99.90
25668;DHT22;18003;-33.830;151.202;2023-04-08T08:41:38;20.20;99.90
25668;DHT22;18003;-33.830;151.202;2023-04-08T08:44:10;20.20;99.90
25668;DHT22;18003;-33.830;151.202;2023-04-08T08:46:44;20.20;99.90
25668;DHT22;18003;-33.830;151.202;2023-04-08T08:49:15;20.20;99.90
25668;DHT22;18003;-33.830;151.202;2023-04-08T08:51:46;20.10;99.90
25668;DHT22;18003;-33.830;151.202;2023-04-08T08:54:18;20.20;99.90
25668;DHT22;18003;-33.830;151.202;2023-04-08T08:56:48;20.20;99.90
25668;DHT22;18003;-33.830;151.202;2023-04-08T08:59:18;20.20;99.90
25668;DHT22;18003;-33.830;151.202;2023-04-08T09:01:48;20.20;99.90
25668;DHT22;18003;-33.830;151.202;2023-04-08T09:04:19;20.10;99.90
25668;DHT22;18003;-33.830;151.202;2023-04-08T09:07:07;20.10;99.90
25668;DHT22;18003;-33.830;151.202;2023-04-08T09:09:19;20.10;99.90
25668;DHT22;18003;-33.830;151.202;2023-04-08T09:11:49;20.10;99.90
25668;DHT22;18003;-33.830;151.202;2023-04-08T09:14:24;20.20;99.90
25668;DHT22;18003;-33.830;151.202;2023-04-08T09:16:54;20.10;99.90
25668;DHT22;18003;-33.830;151.202;2023-04-08T09:19:24;20.20;99.90
25668;DHT22;18003;-33.830;151.202;2023-04-08T09:22:07;20.10;99.90
25668;DHT22;18003;-33.830;151.202;2023-04-08T09:24:37;20.10;99.90
25668;DHT22;18003;-33.830;151.202;2023-04-08T09:27:08;20.10;99.90
25668;DHT22;18003;-33.830;151.202;2023-04-08T09:29:38;20.10;99.90
25668;DHT22;18003;-33.830;151.202;2023-04-08T09:32:08;20.10;99.90
25668;DHT22;18003;-33.830;151.202;2023-04-08T09:34:38;20.20;99.90
25668;DHT22;18003;-33.830;151.202;2023-04-08T09:37:08;20.10;99.90
25668;DHT22;18003;-33.830;151.202;2023-04-08T09:39:38;20.10;99.90
25668;DHT22;18003;-33.830;151.202;2023-04-08T09:42:09;20.10;99.90
25668;DHT22;18003;-33.830;151.202;2023-04-08T09:44:38;20.20;99.90
25668;DHT22;18003;-33.830;151.202;2023-04-08T09:47:17;20.10;99.90
25668;DHT22;18003;-33.830;151.202;2023-04-08T09:49:50;20.10;99.90
25668;DHT22;18003;-33.830;151.202;2023-04-08T09:52:43;20.20;99.90
25668;DHT22;18003;-33.830;151.202;2023-04-08T09:55:13;20.10;99.90
25668;DHT22;18003;-33.830;151.202;2023-04-08T10:00:19;20.10;99.90
25668;DHT22;18003;-33.830;151.202;2023-04-08T10:05:38;20.10;99.90
25668;DHT22;18003;-33.830;151.202;2023-04-08T10:08:09;20.10;99.90
25668;DHT22;18003;-33.830;151.202;2023-04-08T10:10:40;20.10;99.90
25668;DHT22;18003;-33.830;151.202;2023-04-08T10:13:10;20.10;99.90
25668;DHT22;18003;-33.830;151.202;2023-04-08T10:15:40;20.10;99.90
25668;DHT22;18003;-33.830;151.202;2023-04-08T10:20:45;20.10;99.90
25668;DHT22;18003;-33.830;151.202;2023-04-08T10:23:16;20.10;99.90
25668;DHT22;18003;-33.830;151.202;2023-04-08T10:25:51;20.10;99.90
25668;DHT22;18003;-33.830;151.202;2023-04-08T10:28:23;20.10;99.90
25668;DHT22;18003;-33.830;151.202;2023-04-08T10:30:54;20.00;99.90
25668;DHT22;18003;-33.830;151.202;2023-04-08T10:36:12;20.00;99.90
25668;DHT22;18003;-33.830;151.202;2023-04-08T10:38:43;20.00;99.90
25668;DHT22;18003;-33.830;151.202;2023-04-08T10:41:17;20.00;99.90
25668;DHT22;18003;-33.830;151.202;2023-04-08T10:43:47;20.00;99.90
25668;DHT22;18003;-33.830;151.202;2023-04-08T10:46:17;20.00;99.90
25668;DHT22;18003;-33.830;151.202;2023-04-08T10:48:58;20.00;99.90
25668;DHT22;18003;-33.830;151.202;2023-04-08T10:51:19;20.00;99.90
25668;DHT22;18003;-33.830;151.202;2023-04-08T10:53:50;19.90;99.90
25668;DHT22;18003;-33.830;151.202;2023-04-08T10:56:20;19.90;99.90
25668;DHT22;18003;-33.830;151.202;2023-04-08T10:58:51;20.00;99.90
25668;DHT22;18003;-33.830;151.202;2023-04-08T11:01:23;19.90;99.90
25668;DHT22;18003;-33.830;151.202;2023-04-08T11:03:54;20.00;99.90
25668;DHT22;18003;-33.830;151.202;2023-04-08T11:06:24;20.00;99.90
25668;DHT22;18003;-33.830;151.202;2023-04-08T11:08:56;20.00;99.90
25668;DHT22;18003;-33.830;151.202;2023-04-08T11:11:27;19.90;99.90
25668;DHT22;18003;-33.830;151.202;2023-04-08T11:13:57;19.90;99.90
25668;DHT22;18003;-33.830;151.202;2023-04-08T11:16:28;19.90;99.90
25668;DHT22;18003;-33.830;151.202;2023-04-08T11:18:58;19.90;99.90
25668;DHT22;18003;-33.830;151.202;2023-04-08T11:21:28;19.90;99.90
25668;DHT22;18003;-33.830;151.202;2023-04-08T11:23:59;20.00;99.90
25668;DHT22;18003;-33.830;151.202;2023-04-08T11:26:29;19.90;99.90
25668;DHT22;18003;-33.830;151.202;2023-04-08T11:29:00;19.90;99.90
25668;DHT22;18003;-33.830;151.202;2023-04-08T11:31:31;19.90;99.90
25668;DHT22;18003;-33.830;151.202;2023-04-08T11:34:01;19.90;99.90
25668;DHT22;18003;-33.830;151.202;2023-04-08T11:36:31;19.90;99.90
25668;DHT22;18003;-33.830;151.202;2023-04-08T11:39:06;19.90;99.90
25668;DHT22;18003;-33.830;151.202;2023-04-08T11:41:37;19.90;99.90
25668;DHT22;18003;-33.830;151.202;2023-04-08T11:44:10;19.90;99.90
25668;DHT22;18003;-33.830;151.202;2023-04-08T11:46:40;19.90;99.90
25668;DHT22;18003;-33.830;151.202;2023-04-08T11:49:10;19.90;99.90
25668;DHT22;18003;-33.830;151.202;2023-04-08T11:51:57;19.90;99.90
25668;DHT22;18003;-33.830;151.202;2023-04-08T11:54:31;19.90;99.90
25668;DHT22;18003;-33.830;151.202;2023-04-08T11:57:01;19.90;99.90
25668;DHT22;18003;-33.830;151.202;2023-04-08T11:59:31;19.90;99.90
25668;DHT22;18003;-33.830;151.202;2023-04-08T12:02:01;19.90;99.90
25668;DHT22;18003;-33.830;151.202;2023-04-08T12:04:31;19.90;99.90
25668;DHT22;18003;-33.830;151.202;2023-04-08T12:07:01;19.90;99.90
25668;DHT22;18003;-33.830;151.202;2023-04-08T12:09:31;19.90;99.90
25668;DHT22;18003;-33.830;151.202;2023-04-08T12:12:01;19.90;99.90
25668;DHT22;18003;-33.830;151.202;2023-04-08T12:14:31;19.90;99.90
25668;DHT22;18003;-33.830;151.202;2023-04-08T12:17:01;19.80;99.90
25668;DHT22;18003;-33.830;151.202;2023-04-08T12:19:31;19.90;99.90
25668;DHT22;18003;-33.830;151.202;2023-04-08T12:22:01;19.90;99.90
25668;DHT22;18003;-33.830;151.202;2023-04-08T12:24:31;19.80;99.90
25668;DHT22;18003;-33.830;151.202;2023-04-08T12:27:01;19.90;99.90
25668;DHT22;18003;-33.830;151.202;2023-04-08T12:29:32;19.90;99.90
25668;DHT22;18003;-33.830;151.202;2023-04-08T12:32:03;19.90;99.90
25668;DHT22;18003;-33.830;151.202;2023-04-08T12:34:32;19.80;99.90
25668;DHT22;18003;-33.830;151.202;2023-04-08T12:37:03;19.80;99.90
25668;DHT22;18003;-33.830;151.202;2023-04-08T12:39:32;19.90;99.90
25668;DHT22;18003;-33.830;151.202;2023-04-08T12:42:03;19.90;99.90
25668;DHT22;18003;-33.830;151.202;2023-04-08T12:44:33;19.80;99.90
25668;DHT22;18003;-33.830;151.202;2023-04-08T12:47:03;19.80;99.90
25668;DHT22;18003;-33.830;151.202;2023-04-08T12:49:33;19.80;99.90
25668;DHT22;18003;-33.830;151.202;2023-04-08T12:52:03;19.80;99.90
25668;DHT22;18003;-33.830;151.202;2023-04-08T12:54:33;19.80;99.90
25668;DHT22;18003;-33.830;151.202;2023-04-08T12:57:03;19.80;99.90
25668;DHT22;18003;-33.830;151.202;2023-04-08T12:59:33;19.80;99.90
25668;DHT22;18003;-33.830;151.202;2023-04-08T13:02:03;19.80;99.90
25668;DHT22;18003;-33.830;151.202;2023-04-08T13:04:33;19.80;99.90
25668;DHT22;18003;-33.830;151.202;2023-04-08T13:07:03;19.80;99.90
25668;DHT22;18003;-33.830;151.202;2023-04-08T13:09:34;19.80;99.90
25668;DHT22;18003;-33.830;151.202;2023-04-08T13:12:04;19.80;99.90
25668;DHT22;18003;-33.830;151.202;2023-04-08T13:14:34;19.80;99.90
25668;DHT22;18003;-33.830;151.202;2023-04-08T13:17:05;19.80;99.90
25668;DHT22;18003;-33.830;151.202;2023-04-08T13:19:36;19.80;99.90
25668;DHT22;18003;-33.830;151.202;2023-04-08T13:22:06;19.80;99.90
25668;DHT22;18003;-33.830;151.202;2023-04-08T13:24:36;19.80;99.90
25668;DHT22;18003;-33.830;151.202;2023-04-08T13:27:06;19.80;99.90
25668;DHT22;18003;-33.830;151.202;2023-04-08T13:29:37;19.80;99.90
25668;DHT22;18003;-33.830;151.202;2023-04-08T13:32:07;19.80;99.90
25668;DHT22;18003;-33.830;151.202;2023-04-08T13:34:37;19.80;99.90
25668;DHT22;18003;-33.830;151.202;2023-04-08T13:37:09;19.70;99.90
25668;DHT22;18003;-33.830;151.202;2023-04-08T13:39:39;19.70;99.90
25668;DHT22;18003;-33.830;151.202;2023-04-08T13:42:09;19.70;99.90
25668;DHT22;18003;-33.830;151.202;2023-04-08T13:44:39;19.70;99.90
25668;DHT22;18003;-33.830;151.202;2023-04-08T13:47:09;19.70;99.90
25668;DHT22;18003;-33.830;151.202;2023-04-08T13:49:39;19.70;99.90
25668;DHT22;18003;-33.830;151.202;2023-04-08T13:52:09;19.70;99.90
25668;DHT22;18003;-33.830;151.202;2023-04-08T13:54:39;19.70;99.90
25668;DHT22;18003;-33.830;151.202;2023-04-08T13:57:09;19.60;99.90
25668;DHT22;18003;-33.830;151.202;2023-04-08T13:59:39;19.60;99.90
25668;DHT22;18003;-33.830;151.202;2023-04-08T14:02:09;19.60;99.90
25668;DHT22;18003;-33.830;151.202;2023-04-08T14:04:39;19.60;99.90
25668;DHT22;18003;-33.830;151.202;2023-04-08T14:07:13;19.60;99.90
25668;DHT22;18003;-33.830;151.202;2023-04-08T14:09:44;19.60;99.90
25668;DHT22;18003;-33.830;151.202;2023-04-08T14:12:14;19.60;99.90
25668;DHT22;18003;-33.830;151.202;2023-04-08T14:14:44;19.50;99.90
25668;DHT22;18003;-33.830;151.202;2023-04-08T14:17:14;19.50;99.90
25668;DHT22;18003;-33.830;151.202;2023-04-08T14:19:44;19.50;99.90
25668;DHT22;18003;-33.830;151.202;2023-04-08T14:22:14;19.50;99.90
25668;DHT22;18003;-33.830;151.202;2023-04-08T14:24:45;19.50;99.90
25668;DHT22;18003;-33.830;151.202;2023-04-08T14:27:15;19.50;99.90
25668;DHT22;18003;-33.830;151.202;2023-04-08T14:29:45;19.40;99.90
25668;DHT22;18003;-33.830;151.202;2023-04-08T14:32:15;19.40;99.90
25668;DHT22;18003;-33.830;151.202;2023-04-08T14:34:45;19.40;99.90
25668;DHT22;18003;-33.830;151.202;2023-04-08T14:37:17;19.40;99.90
25668;DHT22;18003;-33.830;151.202;2023-04-08T14:39:47;19.40;99.90
25668;DHT22;18003;-33.830;151.202;2023-04-08T14:42:17;19.30;99.90
25668;DHT22;18003;-33.830;151.202;2023-04-08T14:44:47;19.30;99.90
25668;DHT22;18003;-33.830;151.202;2023-04-08T14:47:17;19.30;99.90
25668;DHT22;18003;-33.830;151.202;2023-04-08T14:49:47;19.30;99.90
25668;DHT22;18003;-33.830;151.202;2023-04-08T14:52:17;19.30;99.90
25668;DHT22;18003;-33.830;151.202;2023-04-08T14:54:47;19.30;99.90
25668;DHT22;18003;-33.830;151.202;2023-04-08T14:57:17;19.30;99.90
25668;DHT22;18003;-33.830;151.202;2023-04-08T14:59:47;19.30;99.90
25668;DHT22;18003;-33.830;151.202;2023-04-08T15:02:17;19.30;99.90
25668;DHT22;18003;-33.830;151.202;2023-04-08T15:04:47;19.30;99.90
25668;DHT22;18003;-33.830;151.202;2023-04-08T15:07:17;19.20;99.90
25668;DHT22;18003;-33.830;151.202;2023-04-08T15:09:47;19.20;99.90
25668;DHT22;18003;-33.830;151.202;2023-04-08T15:12:17;19.20;99.90
25668;DHT22;18003;-33.830;151.202;2023-04-08T15:14:48;19.20;99.90
25668;DHT22;18003;-33.830;151.202;2023-04-08T15:17:18;19.20;99.90
25668;DHT22;18003;-33.830;151.202;2023-04-08T15:19:48;19.10;99.90
25668;DHT22;18003;-33.830;151.202;2023-04-08T15:22:18;19.20;99.90
25668;DHT22;18003;-33.830;151.202;2023-04-08T15:24:48;19.20;99.90